KMMK Airport (Meriden Markham Muni) Information

FAA: MMK - ICAO: KMMK

KMMK Airport Location

State Connecticut
County New Haven
City Meriden
KMMK Airport is 3 miles southwest of Meriden, CT.
Latitude 41-30-31.3730N
Longitude 072-49-46.1220W
Elevation 103ft

KMMK Airport METARs

METAR KMMK 060753Z AUTO 00000KT 10SM -RA OVC016 08/06 A3013 RMK AO2 SLP202 P0002 T00830056
Altimeter 30.13"
Temperature 8.3°C (46.9°F)
Wind 0° at 0KT
Clouds overcast at 1,600ft
Visibility 10.0mi
Time observed: 2021-12-06T07:53:00Z

KMMK Airport Details

Status Operational
Activation April 1940
Ownership Public
Usage Public
Chart NEW YORK
ATC on-site No
Beacon schedule sunset-sunrise
Beacon color clear green

KMMK Airport Contacts

Owner CITY OF MERIDEN
Owner address WILMA PETRO, PURCHASING, CITY HALL; 142 E MAIN ST, MERIDEN, CT 06450
Owner phone (203) 630-4115
Manager MARK DITOMASSO
Manager address 141 OGDEN ROAD, COLCHESTER, CT 06415
Manager phone (860) 883-4272

KMMK Airport (Meriden Markham Muni) Radio Frequencies

KMMK (Airport) Radio Frequencies

UNICOM 123.05
Common traffic advisory frequency (CTAF) 123.05